• Join FlightAware (Why Join?)
  • Login
  • US Flag 
10:30AM EDT


 

Airport Tracker/Info


-or-


 

Live Flight TrackerFlight Track Log ✈ UAL6057 ✈ 27-Jun-2013 ✈ KORD - KBNA

Flight Track Log - Related Links

Times and Time Zones

All times are in EDT time to prevent confusion due to time zone crossing. See the UAL6057 flight status page for this flight to view local times or setup timezone preferences in your user account.

Time Position Orientation Groundspeed Altitude Reporting Facility
EDT Latitude Longitude Course Direction KTS MPH feet Rate Location/Type
12:14AM 41.8781 -87.9061 180° South 226 260 3,600  Level Chicago Center
12:15AM 41.7992 -87.8969 175° South 274 315 5,600 2,160 Climbing Chicago Center
12:16AM 41.7178 -87.8933 178° South 292 336 8,100 2,280 Climbing Chicago Center
12:17AM 41.5479 -87.8082 176° South  Level Estimated
12:17AM 41.6358 -87.8889 178° South 296 341 10,300  Level Chicago Center
12:18AM 41.4425 -87.8499 197° South  Level FlightAware Approximate
12:18AM 41.5486 -87.8847 178° South 309 356 12,000  Level Chicago Center
12:19AM 41.3342 -87.8242 186° South  Level Estimated
12:19AM 41.4361 -87.8800 178° South 332 382 13,800  Level Chicago Center
12:20AM 41.2259 -87.7986 180° South  Level Estimated
12:20AM 41.3350 -87.8686 175° South 357 411 14,900  Level Chicago Center
12:21AM 41.2283 -87.8492 172° South 379 436 15,900 1,020 Climbing Chicago Center
12:23AM 41.1200 -87.8281 172° South 391 450 17,000 1,080 Climbing Chicago Center
12:24AM 41.0111 -87.8083 172° South 395 455 18,200 1,080 Climbing Chicago Center
12:25AM 40.9000 -87.7883 172° South 403 464 19,300 1,020 Climbing Chicago Center
12:26AM 40.7881 -87.7681 172° South 409 471 20,300 960 Climbing Chicago Center
12:27AM 40.6733 -87.7464 172° South 416 479 21,300 1,020 Climbing Chicago Center
12:28AM 40.5578 -87.7256 172° South 421 484 22,400 1,020 Climbing Chicago Center
12:29AM 40.4403 -87.7053 173° South 425 489 23,400 1,020 Climbing Chicago Center
12:30AM 40.3228 -87.6847 172° South 427 491 24,500 1,080 Climbing Chicago Center
12:31AM 40.1800 -87.6592 172° South 432 497 25,700 1,020 Climbing Chicago Center
12:32AM 40.0669 -87.6414 173° South 436 502 26,700 900 Climbing Chicago Center
12:33AM 39.9686 -87.6244 172° South 435 501 27,500 1,080 Climbing Indianapolis Center
12:34AM 39.8233 -87.5986 172° South 438 504 28,800 1,080 Climbing Indianapolis Center
12:35AM 39.7036 -87.5786 173° South 438 504 29,800 1,020 Climbing Indianapolis Center
12:36AM 39.5831 -87.5578 172° South 440 506 30,900 1,080 Climbing Indianapolis Center
12:37AM 39.4619 -87.5369 172° South 440 506 32,000 1,080 Climbing Indianapolis Center
12:38AM 39.3419 -87.5156 172° South 439 505 33,200 1,140 Climbing Indianapolis Center
12:39AM 39.2233 -87.4964 173° South 434 499 34,400 840 Climbing Indianapolis Center
12:40AM 39.0908 -87.4725 172° South 434 499 35,000 240 Climbing Indianapolis Center
12:41AM 38.9628 -87.4517 173° South 458 527 35,000  Level Indianapolis Center
12:42AM 38.8283 -87.4281 172° South 482 555 35,000  Level Indianapolis Center
12:43AM 38.6939 -87.4058 173° South 486 559 35,000  Level Indianapolis Center
12:44AM 38.5603 -87.3847 173° South 485 558 35,000 -660 Level Indianapolis Center
12:45AM 38.4275 -87.3625 173° South 484 557 33,700 -1,380 Descending Indianapolis Center
12:46AM 38.2978 -87.3411 173° South 477 549 32,300 -1,380 Descending Indianapolis Center
12:47AM 38.1667 -87.3189 172° South 481 554 31,000 -660 Descending Indianapolis Center
12:48AM 38.0350 -87.2964 172° South 481 554 31,000  Level Indianapolis Center
12:49AM 37.8789 -87.2700 172° South 473 544 31,000 -360 Level Indianapolis Center
12:50AM 37.7689 -87.2525 173° South 470 541 30,300 -1,680 Descending Indianapolis Center
12:51AM 37.6142 -87.2256 172° South 475 547 27,600 -2,460 Descending Indianapolis Center
12:52AM 37.4819 -87.2081 174° South 474 545 25,300 -2,280 Descending Indianapolis Center
12:53AM 37.3478 -87.1858 172° South 480 552 23,100 -1,200 Descending Indianapolis Center
12:54AM 37.2164 -87.1650 173° South 472 543 23,000 -60 Descending Indianapolis Center
12:55AM 37.0853 -87.1436 173° South 472 543 23,000 -600 Level Indianapolis Center
12:56AM 36.9597 -87.0939 162° South 469 540 21,900 -1,680 Descending Indianapolis Center
12:57AM 36.8394 -87.0322 158° South 461 531 19,700 -2,280 Descending Indianapolis Center
12:58AM 36.7300 -86.9778 158° South 423 487 17,300 -2,460 Descending Indianapolis Center
12:59AM 36.6261 -86.9253 158° South 403 464 14,800 -2,520 Descending Indianapolis Center
01:00AM 36.5231 -86.8744 158° South 395 455 12,300 -2,040 Descending Indianapolis Center
01:01AM 36.4225 -86.8058 151° Southeast 385 443 10,500 -1,380 Descending Memphis Center
01:02AM 36.3417 -86.7475 150° Southeast 365 420 9,400 -1,260 Descending Memphis Center
01:03AM 36.2753 -86.6911 146° Southeast 315 362 8,000 -1,680 Descending Memphis Center
01:04AM 36.2186 -86.6114 131° Southeast 279 321 6,100 -1,560 Descending Memphis Center
01:05AM 36.1772 -86.5489 129° Southeast 252 290 4,900 -660 Descending Memphis Center
01:06AM 36.1400 -86.4942 130° Southeast 222 255 4,800 -720 Descending Memphis Center
01:07AM 36.0969 -86.4475 139° Southeast 210 242 3,500 -1,140 Descending Memphis Center
01:08AM 36.0481 -86.4883 214° Southwest 171 197 2,600 -480 Descending Memphis Center
01:09AM 36.0311 -86.5456 250° West 176 203 2,600 -300 Level Memphis Center
01:10AM 36.0617 -86.5928 309° West 138 159 2,100 -600 Descending Memphis Center
01:11AM 36.0878 -86.6275 313° West 138 159 1,400 -660 Descending Memphis Center
01:12AM 36.1139 -86.6597 315° West 133 153 800 -600 Descending Memphis Center
01:14AM 36.1167 -86.6667 90° East  Level FlightAware Approximate
01:21AM 36.1245 -86.6782 90° East  Level Estimated
01:22AM 36.1245 -86.6782 90° East  Level Estimated
01:23AM 36.1245 -86.6782 90° East  Level Estimated
01:24AM 36.1245 -86.6782 90° East  Level Estimated
01:25AM 36.1245 -86.6782 90° East  Level Estimated